Wetterstation Vordersexau
Wetterdaten: Woche 24.10.16 - 30.10.16 (KW43)
Datum Zeit Temp. A. Feuchte A. Luftdruck Regen Wind Richtung Taupunkt Windchill Windben
24.10.2016 00:00 7,6 C 81 % 1008,9 hPa 0,0 l/m 0,0 km/h W 4,6 C 7,6 C 0,0 km/h
24.10.2016 01:00 7,8 C 80 % 1009,2 hPa 0,0 l/m 0,0 km/h S-SW 4,6 C 7,8 C 0,0 km/h
24.10.2016 02:00 8,1 C 78 % 1009,6 hPa 0,0 l/m 0,0 km/h O-SO 4,5 C 8,1 C 0,0 km/h
24.10.2016 03:00 8,1 C 78 % 1009,9 hPa 0,0 l/m 0,0 km/h SO 4,5 C 8,1 C 0,0 km/h
24.10.2016 04:00 8,4 C 77 % 1009,8 hPa 0,5 l/m 0,0 km/h SO 4,6 C 8,4 C 0,0 km/h
24.10.2016 05:00 8,4 C 77 % 1009,7 hPa 0,0 l/m 0,0 km/h O-SO 4,6 C 8,4 C 0,0 km/h
24.10.2016 06:00 8,4 C 76 % 1009,2 hPa 0,0 l/m 0,0 km/h N-NO 4,4 C 8,4 C 0,0 km/h
24.10.2016 07:00 7,9 C 76 % 1009,3 hPa 0,0 l/m 0,0 km/h N-NO 3,9 C 7,9 C 0,0 km/h
24.10.2016 08:00 8,1 C 76 % 1009,7 hPa 0,0 l/m 0,0 km/h N-NO 4,1 C 8,1 C 0,0 km/h
24.10.2016 09:00 9,2 C 75 % 1010,1 hPa 0,0 l/m 0,0 km/h O-SO 5,0 C 9,2 C 0,0 km/h
24.10.2016 10:00 11,3 C 73 % 1010,3 hPa 0,0 l/m 0,0 km/h N-NO 6,6 C 11,3 C 0,0 km/h
24.10.2016 11:00 11,9 C 74 % 1010,2 hPa 0,0 l/m 0,0 km/h W 7,4 C 11,9 C 0,0 km/h
24.10.2016 12:00 13,1 C 81 % 1010,2 hPa 0,0 l/m 0,0 km/h W-SW 9,9 C 13,1 C 0,0 km/h
24.10.2016 13:00 13,3 C 84 % 1010,2 hPa 0,0 l/m 0,0 km/h S-SO 10,7 C 13,3 C 0,0 km/h
24.10.2016 14:00 14,6 C 84 % 1010,1 hPa 0,0 l/m 0,0 km/h SO 11,9 C 14,6 C 0,0 km/h
24.10.2016 15:00 14,5 C 84 % 1009,9 hPa 0,0 l/m 0,0 km/h S-SO 11,8 C 14,5 C 0,0 km/h
24.10.2016 16:00 14,9 C 83 % 1009,8 hPa 0,0 l/m 0,0 km/h O-NO 12,0 C 14,9 C 0,0 km/h
24.10.2016 17:00 15,3 C 84 % 1010,2 hPa 0,0 l/m 0,0 km/h N-NO 12,6 C 15,3 C 0,0 km/h
24.10.2016 18:00 14,5 C 83 % 1010,2 hPa 0,0 l/m 0,0 km/h N-NO 11,6 C 14,5 C 0,0 km/h
24.10.2016 19:00 14,4 C 83 % 1010,5 hPa 0,0 l/m 0,0 km/h N-NO 11,5 C 14,4 C 0,0 km/h
24.10.2016 20:00 14,5 C 82 % 1010,7 hPa 0,0 l/m 0,0 km/h N-NW 11,5 C 14,5 C 0,0 km/h
24.10.2016 21:00 14,0 C 80 % 1010,9 hPa 1,6 l/m 0,0 km/h S-SW 10,6 C 14,0 C 0,0 km/h
24.10.2016 22:00 13,1 C 79 % 1012,6 hPa 0,0 l/m 0,0 km/h O-SO 9,5 C 13,1 C 0,0 km/h
24.10.2016 23:00 13,1 C 76 % 1013,1 hPa 1,0 l/m 0,0 km/h S-SO 9,0 C 13,1 C 0,0 km/h
25.10.2016 00:00 13,4 C 73 % 1013,9 hPa 2,1 l/m 0,0 km/h O-SO 8,7 C 13,4 C 0,0 km/h
25.10.2016 01:00 13,1 C 72 % 1013,9 hPa 2,1 l/m 0,0 km/h W 8,2 C 13,1 C 0,0 km/h
25.10.2016 02:00 13,4 C 69 % 1015,9 hPa 2,6 l/m 0,0 km/h S-SW 7,8 C 13,4 C 0,0 km/h
25.10.2016 03:00 13,5 C 66 % 1015,0 hPa 2,1 l/m 0,0 km/h N-NO 7,3 C 13,5 C 0,0 km/h
25.10.2016 04:00 13,3 C 66 % 1015,5 hPa 0,5 l/m 0,0 km/h N-NO 7,1 C 13,3 C 0,0 km/h
25.10.2016 05:00 12,9 C 67 % 1016,3 hPa 1,6 l/m 0,0 km/h S-SO 6,9 C 12,9 C 0,0 km/h
25.10.2016 06:00 13,2 C 66 % 1017,1 hPa 0,5 l/m 0,0 km/h NO 7,0 C 13,2 C 0,0 km/h
25.10.2016 07:00 13,1 C 66 % 1017,8 hPa 0,5 l/m 0,0 km/h O-NO 6,9 C 13,1 C 0,0 km/h
25.10.2016 08:00 13,1 C 66 % 1018,2 hPa 0,0 l/m 0,0 km/h NW 6,9 C 13,1 C 0,0 km/h
25.10.2016 09:00 13,4 C 64 % 1019,1 hPa 0,5 l/m 0,0 km/h NW 6,7 C 13,4 C 0,0 km/h
25.10.2016 10:00 14,2 C 63 % 1019,1 hPa 0,0 l/m 0,0 km/h NW 7,3 C 14,2 C 0,0 km/h
25.10.2016 11:00 15,8 C 64 % 1019,4 hPa 0,0 l/m 0,0 km/h N 9,0 C 15,8 C 0,0 km/h
25.10.2016 12:00 14,9 C 73 % 1019,7 hPa 0,0 l/m 0,0 km/h SO 10,1 C 14,9 C 0,0 km/h
25.10.2016 13:00 14,3 C 76 % 1019,4 hPa 0,5 l/m 0,0 km/h O-SO 10,1 C 14,3 C 0,0 km/h
25.10.2016 14:00 15,3 C 79 % 1019,5 hPa 0,0 l/m 0,0 km/h SO 11,7 C 15,3 C 0,0 km/h
25.10.2016 15:00 15,3 C 80 % 1019,5 hPa 0,0 l/m 0,0 km/h SO 11,9 C 15,3 C 0,0 km/h
25.10.2016 16:00 15,3 C 83 % 1019,7 hPa 0,0 l/m 0,0 km/h W 12,4 C 15,3 C 0,0 km/h
25.10.2016 17:00 14,2 C 84 % 1020,3 hPa 0,0 l/m 1,9 km/h NW 11,5 C 14,2 C 1,1 km/h
25.10.2016 18:00 13,4 C 84 % 1020,2 hPa 0,0 l/m 0,0 km/h NW 10,8 C 13,4 C 0,0 km/h
25.10.2016 19:00 12,6 C 83 % 1020,9 hPa 0,0 l/m 0,0 km/h N-NO 9,8 C 12,6 C 0,0 km/h
25.10.2016 20:00 12,6 C 83 % 1021,3 hPa 0,0 l/m 0,0 km/h N 9,8 C 12,6 C 0,0 km/h
25.10.2016 21:00 12,1 C 83 % 1021,8 hPa 0,0 l/m 0,0 km/h N 9,3 C 12,1 C 0,0 km/h
25.10.2016 22:00 11,4 C 83 % 1022,1 hPa 0,0 l/m 0,0 km/h N 8,6 C 11,4 C 0,0 km/h
25.10.2016 23:00 11,4 C 82 % 1022,5 hPa 0,0 l/m 0,0 km/h N 8,4 C 11,4 C 0,0 km/h
26.10.2016 00:00 11,1 C 82 % 1022,2 hPa 0,0 l/m 0,0 km/h N 8,1 C 11,1 C 0,0 km/h
26.10.2016 01:00 11,0 C 81 % 1022,5 hPa 0,0 l/m 0,0 km/h N 7,9 C 11,0 C 0,0 km/h
26.10.2016 02:00 10,9 C 80 % 1022,7 hPa 0,0 l/m 0,0 km/h N 7,6 C 10,9 C 0,0 km/h
26.10.2016 03:00 10,9 C 79 % 1022,7 hPa 0,0 l/m 0,0 km/h N 7,4 C 10,9 C 0,0 km/h
26.10.2016 04:00 10,9 C 78 % 1022,7 hPa 0,0 l/m 0,0 km/h N 7,2 C 10,9 C 0,0 km/h
26.10.2016 05:00 10,6 C 78 % 1022,4 hPa 0,0 l/m 0,0 km/h N 6,9 C 10,6 C 0,0 km/h
26.10.2016 06:00 10,5 C 78 % 1022,5 hPa 0,0 l/m 0,0 km/h N 6,8 C 10,5 C 0,0 km/h
26.10.2016 07:00 10,4 C 77 % 1022,7 hPa 0,0 l/m 0,0 km/h N 6,5 C 10,4 C 0,0 km/h
26.10.2016 08:00 10,4 C 77 % 1023,1 hPa 0,0 l/m 0,0 km/h N 6,5 C 10,4 C 0,0 km/h
26.10.2016 09:00 10,6 C 76 % 1023,6 hPa 0,0 l/m 0,0 km/h N 6,5 C 10,6 C 0,0 km/h
26.10.2016 10:00 11,2 C 74 % 1024,0 hPa 0,0 l/m 0,0 km/h W-NW 6,7 C 11,2 C 0,0 km/h
26.10.2016 11:00 12,5 C 80 % 1024,4 hPa 0,0 l/m 0,0 km/h W-NW 9,1 C 12,5 C 0,0 km/h
26.10.2016 12:00 14,1 C 85 % 1024,7 hPa 0,0 l/m 0,0 km/h W 11,6 C 14,1 C 0,0 km/h
26.10.2016 13:00 12,9 C 85 % 1024,7 hPa 0,0 l/m 0,0 km/h W-SW 10,4 C 12,9 C 0,0 km/h
26.10.2016 14:00 13,8 C 84 % 1024,5 hPa 0,0 l/m 0,0 km/h W 11,1 C 13,8 C 0,0 km/h
26.10.2016 15:00 14,1 C 84 % 1024,5 hPa 0,0 l/m 0,0 km/h SO 11,4 C 14,1 C 0,0 km/h
26.10.2016 16:00 13,8 C 84 % 1024,5 hPa 0,0 l/m 9,1 km/h SO 11,1 C 12,2 C 5,0 km/h
26.10.2016 17:00 13,6 C 84 % 1024,8 hPa 0,0 l/m 0,0 km/h SO 10,9 C 13,6 C 0,0 km/h
26.10.2016 18:00 12,9 C 85 % 1025,3 hPa 0,0 l/m 0,0 km/h NO 10,4 C 12,9 C 0,0 km/h
26.10.2016 19:00 10,9 C 85 % 1025,6 hPa 0,0 l/m 0,0 km/h O-NO 8,5 C 10,9 C 0,0 km/h
26.10.2016 20:00 10,4 C 85 % 1026,1 hPa 0,0 l/m 0,0 km/h NO 8,0 C 10,4 C 0,0 km/h
26.10.2016 21:00 10,3 C 84 % 1026,8 hPa 0,0 l/m 0,0 km/h NO 7,7 C 10,3 C 0,0 km/h
26.10.2016 22:00 9,9 C 83 % 1027,4 hPa 0,0 l/m 0,0 km/h NO 7,2 C 9,9 C 0,0 km/h
26.10.2016 23:00 9,3 C 83 % 1027,9 hPa 0,0 l/m 0,0 km/h NO 6,6 C 9,3 C 0,0 km/h
27.10.2016 00:00 8,5 C 82 % 1028,1 hPa 0,0 l/m 0,0 km/h NO 5,6 C 8,5 C 0,0 km/h
27.10.2016 01:00 6,8 C 83 % 1028,2 hPa 0,0 l/m 0,0 km/h NO 4,1 C 6,8 C 0,0 km/h
27.10.2016 02:00 7,8 C 81 % 1028,5 hPa 0,0 l/m 0,0 km/h NO 4,7 C 7,8 C 0,0 km/h
27.10.2016 03:00 7,4 C 80 % 1028,6 hPa 0,0 l/m 0,0 km/h NO 4,2 C 7,4 C 0,0 km/h
27.10.2016 04:00 5,9 C 81 % 1028,8 hPa 0,0 l/m 0,0 km/h NO 2,9 C 5,9 C 0,0 km/h
27.10.2016 05:00 5,4 C 80 % 1028,5 hPa 0,0 l/m 0,0 km/h NO 2,2 C 5,4 C 0,0 km/h
27.10.2016 06:00 5,9 C 79 % 1029,3 hPa 0,0 l/m 0,0 km/h NO 2,5 C 5,9 C 0,0 km/h
27.10.2016 07:00 4,7 C 80 % 1029,7 hPa 0,0 l/m 0,0 km/h NO 1,6 C 4,7 C 0,0 km/h
27.10.2016 08:00 3,8 C 80 % 1030,1 hPa 0,0 l/m 0,0 km/h O-NO 0,7 C 3,8 C 0,0 km/h
27.10.2016 09:00 5,3 C 70 % 1031,1 hPa 0,0 l/m 0,0 km/h O-NO 0,3 C 5,3 C 0,0 km/h
27.10.2016 10:00 10,8 C 84 % 1031,6 hPa 0,0 l/m 0,0 km/h W-NW 8,2 C 10,8 C 0,0 km/h
27.10.2016 11:00 13,2 C 78 % 1031,9 hPa 0,0 l/m 0,0 km/h NW 9,4 C 13,2 C 0,0 km/h
27.10.2016 12:00 16,3 C 71 % 1031,9 hPa 0,0 l/m 0,0 km/h W-NW 11,0 C 16,3 C 0,0 km/h
27.10.2016 13:00 17,4 C 67 % 1031,4 hPa 0,0 l/m 0,0 km/h W-NW 11,2 C 17,4 C 0,0 km/h
27.10.2016 14:00 17,8 C 64 % 1030,9 hPa 0,0 l/m 0,0 km/h W 10,9 C 17,8 C 0,0 km/h
27.10.2016 15:00 19,9 C 59 % 1030,4 hPa 0,0 l/m 0,0 km/h W 11,6 C 19,9 C 0,0 km/h
27.10.2016 16:00 22,1 C 53 % 1030,3 hPa 0,0 l/m 0,0 km/h W 12,1 C 22,1 C 0,0 km/h
27.10.2016 17:00 19,3 C 57 % 1030,4 hPa 0,0 l/m 0,0 km/h W 10,6 C 19,3 C 0,0 km/h
27.10.2016 18:00 13,4 C 67 % 1030,5 hPa 0,0 l/m 0,0 km/h W 7,4 C 13,4 C 0,0 km/h
27.10.2016 19:00 9,0 C 80 % 1031,1 hPa 0,0 l/m 0,0 km/h W 5,7 C 9,0 C 0,0 km/h
27.10.2016 20:00 7,9 C 83 % 1031,4 hPa 0,0 l/m 0,0 km/h S-SO 5,2 C 7,9 C 0,0 km/h
27.10.2016 21:00 7,0 C 85 % 1031,3 hPa 0,0 l/m 0,0 km/h S-SO 4,7 C 7,0 C 0,0 km/h
27.10.2016 22:00 6,7 C 85 % 1031,1 hPa 0,0 l/m 0,0 km/h S-SO 4,4 C 6,7 C 0,0 km/h
27.10.2016 23:00 6,1 C 85 % 1031,2 hPa 0,0 l/m 0,0 km/h S-SO 3,8 C 6,1 C 0,0 km/h
28.10.2016 00:00 5,3 C 85 % 1031,3 hPa 0,0 l/m 0,0 km/h SO 3,0 C 5,3 C 0,0 km/h
28.10.2016 01:00 5,1 C 84 % 1031,1 hPa 0,0 l/m 1,3 km/h SO 2,6 C 5,1 C 0,7 km/h
28.10.2016 02:00 4,8 C 83 % 1031,1 hPa 0,0 l/m 0,0 km/h SO 2,2 C 4,8 C 0,0 km/h
28.10.2016 03:00 4,3 C 83 % 1030,8 hPa 0,0 l/m 0,0 km/h NO 1,7 C 4,3 C 0,0 km/h
28.10.2016 04:00 4,2 C 83 % 1030,5 hPa 0,0 l/m 0,0 km/h O-NO 1,6 C 4,2 C 0,0 km/h
28.10.2016 05:00 3,3 C 83 % 1030,7 hPa 0,0 l/m 0,0 km/h O-NO 0,7 C 3,3 C 0,0 km/h
28.10.2016 06:00 2,6 C 83 % 1031,1 hPa 0,0 l/m 0,0 km/h O-NO 0,0 C 2,6 C 0,0 km/h
28.10.2016 07:00 2,4 C 82 % 1031,8 hPa 0,0 l/m 0,0 km/h O-NO -0,4 C 2,4 C 0,0 km/h
28.10.2016 08:00 3,1 C 82 % 1031,6 hPa 0,0 l/m 0,0 km/h O-NO 0,3 C 3,1 C 0,0 km/h
28.10.2016 09:00 4,8 C 80 % 1032,0 hPa 0,0 l/m 0,0 km/h O-SO 1,6 C 4,8 C 0,0 km/h
28.10.2016 10:00 9,6 C 81 % 1031,8 hPa 0,0 l/m 0,0 km/h W 6,5 C 9,6 C 0,0 km/h
28.10.2016 11:00 14,9 C 76 % 1031,6 hPa 0,0 l/m 0,0 km/h W 10,7 C 14,9 C 0,0 km/h
28.10.2016 12:00 14,1 C 74 % 1032,3 hPa 0,0 l/m 0,0 km/h W-SW 9,5 C 14,1 C 0,0 km/h
28.10.2016 13:00 13,4 C 73 % 1031,9 hPa 0,0 l/m 0,0 km/h W 8,7 C 13,4 C 0,0 km/h
28.10.2016 14:00 11,9 C 78 % 1032,2 hPa 0,0 l/m 0,0 km/h W 8,2 C 11,9 C 0,0 km/h
28.10.2016 15:00 16,4 C 68 % 1031,5 hPa 0,0 l/m 0,0 km/h N-NW 10,5 C 16,4 C 0,0 km/h
28.10.2016 16:00 18,7 C 60 % 1031,6 hPa 0,0 l/m 0,6 km/h W 10,8 C 18,7 C 0,4 km/h
28.10.2016 17:00 12,9 C 72 % 1032,0 hPa 0,0 l/m 0,0 km/h SW 8,0 C 12,9 C 0,0 km/h
28.10.2016 18:00 10,4 C 78 % 1031,9 hPa 0,0 l/m 0,0 km/h W-SW 6,7 C 10,4 C 0,0 km/h
28.10.2016 19:00 7,5 C 84 % 1031,8 hPa 0,0 l/m 0,0 km/h N 5,0 C 7,5 C 0,0 km/h
28.10.2016 20:00 6,2 C 85 % 1032,8 hPa 0,0 l/m 0,0 km/h O 3,9 C 6,2 C 0,0 km/h
28.10.2016 21:00 6,3 C 84 % 1032,5 hPa 0,0 l/m 0,0 km/h O-NO 3,8 C 6,3 C 0,0 km/h
28.10.2016 22:00 6,8 C 84 % 1032,7 hPa 0,0 l/m 0,0 km/h N-NO 4,3 C 6,8 C 0,0 km/h
28.10.2016 23:00 7,3 C 82 % 1032,3 hPa 0,0 l/m 0,0 km/h N-NO 4,4 C 7,3 C 0,0 km/h
29.10.2016 00:00 6,3 C 83 % 1031,9 hPa 0,0 l/m 0,0 km/h N-NO 3,6 C 6,3 C 0,0 km/h
29.10.2016 01:00 5,8 C 82 % 1032,3 hPa 0,0 l/m 0,0 km/h N-NO 3,0 C 5,8 C 0,0 km/h
29.10.2016 02:00 4,6 C 83 % 1031,9 hPa 0,0 l/m 0,0 km/h N-NO 2,0 C 4,6 C 0,0 km/h
29.10.2016 03:00 4,4 C 82 % 1031,8 hPa 0,0 l/m 0,0 km/h SO 1,6 C 4,4 C 0,0 km/h
29.10.2016 04:00 3,8 C 82 % 1031,7 hPa 0,0 l/m 0,0 km/h NO 1,0 C 3,8 C 0,0 km/h
29.10.2016 05:00 3,4 C 82 % 1031,6 hPa 0,0 l/m 0,0 km/h NO 0,6 C 3,4 C 0,0 km/h
29.10.2016 06:00 2,1 C 82 % 1031,5 hPa 0,0 l/m 0,0 km/h NO -0,6 C 2,1 C 0,0 km/h
29.10.2016 07:00 2,3 C 82 % 1031,7 hPa 0,0 l/m 0,0 km/h NO -0,4 C 2,3 C 0,0 km/h
29.10.2016 08:00 2,1 C 81 % 1031,9 hPa 0,0 l/m 0,0 km/h NO -0,8 C 2,1 C 0,0 km/h
29.10.2016 09:00 4,5 C 75 % 1031,7 hPa 0,0 l/m 0,0 km/h N-NO 0,5 C 4,5 C 0,0 km/h
29.10.2016 10:00 10,8 C 79 % 1032,0 hPa 0,0 l/m 0,0 km/h N-NO 7,3 C 10,8 C 0,0 km/h
29.10.2016 11:00 11,4 C 85 % 1031,7 hPa 0,0 l/m 0,0 km/h W-NW 9,0 C 11,4 C 0,0 km/h
29.10.2016 12:00 14,3 C 76 % 1031,7 hPa 0,0 l/m 0,0 km/h N-NW 10,1 C 14,3 C 0,0 km/h
29.10.2016 13:00 17,5 C 66 % 1031,2 hPa 0,0 l/m 0,0 km/h W 11,1 C 17,5 C 0,0 km/h
29.10.2016 14:00 17,5 C 64 % 1030,1 hPa 0,0 l/m 0,6 km/h W 10,6 C 17,5 C 0,4 km/h
29.10.2016 15:00 18,9 C 61 % 1029,1 hPa 0,0 l/m 0,0 km/h W 11,2 C 18,9 C 0,0 km/h
29.10.2016 16:00 20,5 C 58 % 1028,7 hPa 0,0 l/m 0,0 km/h SW 11,9 C 20,5 C 0,0 km/h
29.10.2016 17:00 19,2 C 60 % 1028,4 hPa 0,0 l/m 0,0 km/h SW 11,2 C 19,2 C 0,0 km/h
29.10.2016 18:00 12,5 C 72 % 1028,4 hPa 0,0 l/m 0,0 km/h SW 7,6 C 12,5 C 0,0 km/h
29.10.2016 19:00 8,5 C 81 % 1028,8 hPa 0,0 l/m 0,0 km/h SW 5,4 C 8,5 C 0,0 km/h
29.10.2016 20:00 7,3 C 84 % 1028,8 hPa 0,0 l/m 0,0 km/h S 4,8 C 7,3 C 0,0 km/h
29.10.2016 21:00 6,6 C 85 % 1028,7 hPa 0,0 l/m 0,0 km/h S-SO 4,3 C 6,6 C 0,0 km/h
29.10.2016 22:00 5,9 C 85 % 1028,4 hPa 0,0 l/m 0,0 km/h S-SO 3,6 C 5,9 C 0,0 km/h
29.10.2016 23:00 4,7 C 85 % 1028,5 hPa 0,0 l/m 0,0 km/h S-SO 2,4 C 4,7 C 0,0 km/h
30.10.2016 00:00 4,2 C 85 % 1028,6 hPa 0,0 l/m 0,0 km/h S-SO 1,9 C 4,2 C 0,0 km/h
30.10.2016 01:00 4,1 C 84 % 1028,2 hPa 0,0 l/m 0,0 km/h S-SO 1,6 C 4,1 C 0,0 km/h
30.10.2016 02:00 3,9 C 84 % 1027,8 hPa 0,0 l/m 0,0 km/h S-SO 1,4 C 3,9 C 0,0 km/h
30.10.2016 03:00 3,1 C 84 % 1027,8 hPa 0,0 l/m 0,0 km/h S-SO 0,7 C 3,1 C 0,0 km/h
30.10.2016 04:00 2,6 C 84 % 1027,5 hPa 0,0 l/m 0,0 km/h S-SO 0,2 C 2,6 C 0,0 km/h
30.10.2016 05:00 2,1 C 84 % 1027,2 hPa 0,0 l/m 0,0 km/h S-SO -0,3 C 2,1 C 0,0 km/h
30.10.2016 06:00 2,5 C 83 % 1027,1 hPa 0,0 l/m 0,0 km/h S-SO -0,1 C 2,5 C 0,0 km/h
30.10.2016 07:00 3,0 C 82 % 1026,8 hPa 0,0 l/m 0,0 km/h S-SO 0,2 C 3,0 C 0,0 km/h
30.10.2016 08:00 3,3 C 81 % 1027,0 hPa 0,0 l/m 0,0 km/h S-SO 0,4 C 3,3 C 0,0 km/h
30.10.2016 09:00 3,9 C 80 % 1027,2 hPa 0,0 l/m 0,0 km/h S-SO 0,8 C 3,9 C 0,0 km/h
30.10.2016 10:00 4,6 C 79 % 1027,6 hPa 0,0 l/m 0,0 km/h S-SO 1,3 C 4,6 C 0,0 km/h
30.10.2016 11:00 5,7 C 77 % 1027,3 hPa 0,0 l/m 0,0 km/h NO 2,0 C 5,7 C 0,0 km/h
30.10.2016 12:00 6,4 C 77 % 1027,2 hPa 0,0 l/m 0,0 km/h W-NW 2,7 C 6,4 C 0,0 km/h
30.10.2016 13:00 7,1 C 79 % 1026,7 hPa 0,0 l/m 0,0 km/h W-SW 3,7 C 7,1 C 0,0 km/h
30.10.2016 14:00 7,6 C 80 % 1026,2 hPa 0,0 l/m 0,0 km/h S 4,4 C 7,6 C 0,0 km/h
30.10.2016 15:00 8,0 C 81 % 1025,6 hPa 0,0 l/m 0,0 km/h W-NW 4,9 C 8,0 C 0,0 km/h
30.10.2016 16:00 8,7 C 82 % 1025,4 hPa 0,0 l/m 0,0 km/h SO 5,8 C 8,7 C 0,0 km/h
30.10.2016 17:00 8,3 C 83 % 1025,2 hPa 0,0 l/m 2,6 km/h SO 5,6 C 8,3 C 1,4 km/h
30.10.2016 18:00 8,1 C 82 % 1025,0 hPa 0,0 l/m 0,0 km/h SO 5,2 C 8,1 C 0,0 km/h
30.10.2016 19:00 7,9 C 81 % 1025,3 hPa 0,0 l/m 0,0 km/h O-NO 4,8 C 7,9 C 0,0 km/h
30.10.2016 20:00 7,6 C 80 % 1025,4 hPa 0,0 l/m 0,0 km/h O-NO 4,4 C 7,6 C 0,0 km/h
30.10.2016 21:00 7,3 C 80 % 1025,6 hPa 0,0 l/m 0,0 km/h S-SO 4,1 C 7,3 C 0,0 km/h
30.10.2016 22:00 6,9 C 79 % 1025,6 hPa 0,0 l/m 0,0 km/h S 3,5 C 6,9 C 0,0 km/h
30.10.2016 23:00 6,7 C 78 % 1025,7 hPa 0,0 l/m 1,9 km/h S 3,1 C 6,7 C 1,1 km/h
Min-Datum _ 29.10.16 27.10.16 24.10.16 - 24.10.16 - 29.10.16 29.10.16 24.10.16
_ Min-Zeit 06:11 16:11 00:11 - 00:11 - 08:11 06:11 00:11
Minimum _ 2,1 C 53 % 1008,9 hPa - 0,0 km/h - -0,8 C 2,1 C 0,0 km/h
Max-Datum _ 27.10.16 26.10.16 28.10.16 25.10.16 26.10.16 - 24.10.16 27.10.16 26.10.16
_ Max-Zeit 16:11 12:11 20:11 02:11 16:11 - 17:11 16:11 16:11
Maximum _ 22,1 C 85 % 1032,8 hPa 2,6 l/m 9,1 km/h
SO
- 12,6 C 22,1 C 5,0 km/h
SO
Durchschnitt _ 9,9 C 78 % 1024,6 hPa #16,1 l/m 0,1 km/h S-SO 6,3 C 9,9 C 0,1 km/h
www.sexauwetter.de